createdAt,value
2022-10-31T00:02:29.726Z,8.90
2022-10-31T00:05:09.661Z,8.89
2022-10-31T00:08:06.651Z,8.88
2022-10-31T00:10:53.667Z,8.88
2022-10-31T00:13:26.778Z,8.87
2022-10-31T00:16:26.658Z,8.83
2022-10-31T00:19:08.655Z,8.78
2022-10-31T00:21:55.640Z,8.76
2022-10-31T00:24:35.672Z,8.75
2022-10-31T00:27:29.646Z,8.71
2022-10-31T00:30:16.671Z,8.67
2022-10-31T00:32:49.734Z,8.64
2022-10-31T00:35:36.671Z,8.61
2022-10-31T00:38:16.677Z,8.62
2022-10-31T00:41:10.645Z,8.64
2022-10-31T00:43:57.670Z,8.62
2022-10-31T00:46:30.736Z,8.61
2022-10-31T00:49:17.674Z,8.59
2022-10-31T00:51:57.703Z,8.53
2022-10-31T00:54:44.654Z,8.48
2022-10-31T00:57:17.752Z,8.47
2022-10-31T01:00:04.677Z,8.45
2022-10-31T01:02:37.856Z,8.45
2022-10-31T01:05:24.665Z,8.44
2022-10-31T01:08:04.719Z,8.46
2022-10-31T01:10:58.669Z,8.49
2022-10-31T01:13:46.672Z,8.48
2022-10-31T01:16:22.770Z,8.50
2022-10-31T01:19:09.683Z,8.50
2022-10-31T01:21:42.768Z,8.51
2022-10-31T01:24:29.679Z,8.50
2022-10-31T01:27:09.686Z,8.50
2022-10-31T01:29:56.682Z,8.48
2022-10-31T01:32:29.948Z,8.44
2022-10-31T01:35:16.703Z,8.41
2022-10-31T01:37:56.711Z,8.37
2022-10-31T01:40:50.689Z,8.36
2022-10-31T01:43:50.696Z,8.36
2022-10-31T01:46:36.689Z,8.37
2022-10-31T01:49:46.689Z,8.39
2022-10-31T01:52:40.689Z,8.36
2022-10-31T01:55:26.458Z,8.33
2022-10-31T01:58:28.690Z,8.32
2022-10-31T02:01:22.802Z,8.30
2022-10-31T02:04:16.712Z,8.28
2022-10-31T02:07:09.706Z,8.26
2022-10-31T02:09:44.770Z,8.25
2022-10-31T02:12:32.706Z,8.21
2022-10-31T02:15:14.718Z,8.21
2022-10-31T02:18:08.698Z,8.22
2022-10-31T02:21:26.719Z,8.21
2022-10-31T02:24:18.781Z,8.13
2022-10-31T02:27:11.731Z,8.08
2022-10-31T02:30:02.788Z,8.03
2022-10-31T02:32:58.971Z,8.00
2022-10-31T02:36:12.720Z,7.99
2022-10-31T02:39:26.718Z,8.00
2022-10-31T02:42:25.723Z,8.02
2022-10-31T02:45:37.849Z,8.01
2022-10-31T02:48:27.714Z,8.01
2022-10-31T02:51:06.783Z,8.03
2022-10-31T02:53:53.732Z,8.01
2022-10-31T02:56:27.777Z,8.01
2022-10-31T02:59:21.736Z,8.00
2022-10-31T03:02:19.845Z,8.01
2022-10-31T03:05:16.881Z,8.00
2022-10-31T03:08:06.749Z,8.00
2022-10-31T03:10:55.756Z,8.01
2022-10-31T03:14:07.737Z,8.02
2022-10-31T03:16:59.728Z,8.01
2022-10-31T03:19:47.911Z,7.99
2022-10-31T03:22:38.741Z,7.98
2022-10-31T03:25:12.816Z,7.97
2022-10-31T03:28:00.998Z,7.95
2022-10-31T03:30:34.791Z,7.95
2022-10-31T03:33:26.740Z,7.94
2022-10-31T03:36:10.732Z,7.92
2022-10-31T03:39:05.768Z,7.87
2022-10-31T03:42:00.757Z,7.85
2022-10-31T03:44:36.924Z,7.84
2022-10-31T03:47:23.747Z,7.83
2022-10-31T03:50:04.745Z,7.83
2022-10-31T03:53:01.756Z,7.81
2022-10-31T03:55:56.739Z,7.75
2022-10-31T03:58:38.410Z,7.70
2022-10-31T04:01:41.853Z,7.70
2022-10-31T04:04:35.763Z,7.67
2022-10-31T04:07:23.754Z,7.66
2022-10-31T04:09:58.825Z,7.67
2022-10-31T04:12:46.759Z,7.70
2022-10-31T04:15:20.851Z,7.68
2022-10-31T04:18:11.773Z,7.61
2022-10-31T04:20:58.752Z,7.58
2022-10-31T04:23:52.777Z,7.57
2022-10-31T04:26:46.777Z,7.55
2022-10-31T04:29:33.757Z,7.50
2022-10-31T04:32:13.775Z,7.49
2022-10-31T04:35:00.761Z,7.48
2022-10-31T04:37:33.836Z,7.50
2022-10-31T04:40:20.766Z,7.49
2022-10-31T04:43:01.058Z,7.46
2022-10-31T04:45:49.778Z,7.45
2022-10-31T04:48:23.893Z,7.42
2022-10-31T04:51:10.784Z,7.43
2022-10-31T04:53:43.898Z,7.42
2022-10-31T04:56:30.788Z,7.42
2022-10-31T04:59:10.779Z,7.41
2022-10-31T05:02:04.870Z,7.43
2022-10-31T05:04:58.783Z,7.43
2022-10-31T05:07:56.786Z,7.44
2022-10-31T05:10:50.793Z,7.43
2022-10-31T05:13:37.771Z,7.41
2022-10-31T05:16:10.919Z,7.41
2022-10-31T05:18:57.783Z,7.39
2022-10-31T05:21:33.833Z,7.37
2022-10-31T05:24:20.788Z,7.31
2022-10-31T05:26:53.897Z,7.31
2022-10-31T05:29:40.794Z,7.29
2022-10-31T05:32:13.902Z,7.28
2022-10-31T05:35:00.818Z,7.28
2022-10-31T05:37:33.902Z,7.26
2022-10-31T05:40:21.796Z,7.27
2022-10-31T05:42:59.503Z,7.29
2022-10-31T05:45:46.797Z,7.33
2022-10-31T05:48:19.900Z,7.34
2022-10-31T05:51:06.811Z,7.34
2022-10-31T05:53:39.900Z,7.37
2022-10-31T05:56:26.804Z,7.41
2022-10-31T05:59:06.786Z,7.44
2022-10-31T06:02:00.816Z,7.47
2022-10-31T06:04:54.877Z,7.46
2022-10-31T06:07:51.218Z,7.44
2022-10-31T06:10:44.808Z,7.40
2022-10-31T06:13:31.812Z,7.41
2022-10-31T06:16:04.923Z,7.41
2022-10-31T06:18:53.806Z,7.42
2022-10-31T06:21:26.929Z,7.41
2022-10-31T06:24:16.825Z,7.39
2022-10-31T06:26:49.899Z,7.42
2022-10-31T06:29:36.829Z,7.45
2022-10-31T06:32:09.898Z,7.48
2022-10-31T06:34:56.834Z,7.53
2022-10-31T06:37:36.818Z,7.55
2022-10-31T06:40:30.827Z,7.55
2022-10-31T06:43:18.824Z,7.56
2022-10-31T06:45:58.817Z,7.51
2022-10-31T06:48:52.860Z,7.49
2022-10-31T06:51:46.820Z,7.47
2022-10-31T06:54:33.822Z,7.49
2022-10-31T06:57:06.925Z,7.55
2022-10-31T07:00:00.829Z,7.60
2022-10-31T07:02:54.832Z,7.61
2022-10-31T07:05:41.807Z,7.60
2022-10-31T07:08:24.839Z,7.65
2022-10-31T07:11:18.836Z,7.66
2022-10-31T07:14:12.840Z,7.67
2022-10-31T07:16:59.826Z,7.69
2022-10-31T07:19:35.919Z,7.72
2022-10-31T07:22:22.844Z,7.75
2022-10-31T07:24:55.935Z,7.79
2022-10-31T07:27:44.838Z,7.78
2022-10-31T07:30:26.899Z,7.80
2022-10-31T07:33:15.227Z,7.84
2022-10-31T07:35:54.865Z,7.87
2022-10-31T07:38:41.845Z,7.91
2022-10-31T07:41:21.841Z,7.91
2022-10-31T07:44:15.846Z,7.89
2022-10-31T07:47:02.865Z,7.93
2022-10-31T07:49:42.844Z,7.97
2022-10-31T07:52:36.869Z,8.02
2022-10-31T07:55:23.843Z,8.07
2022-10-31T07:58:15.009Z,8.08
2022-10-31T08:01:02.021Z,8.11
2022-10-31T08:03:41.843Z,8.15
2022-10-31T08:06:28.865Z,8.20
2022-10-31T08:09:01.935Z,8.22
2022-10-31T08:11:48.853Z,8.28
2022-10-31T08:14:22.091Z,8.34
2022-10-31T08:17:08.856Z,8.42
2022-10-31T08:19:43.904Z,8.47
2022-10-31T08:22:30.850Z,8.51
2022-10-31T08:25:05.828Z,8.56
2022-10-31T08:27:56.909Z,8.66
2022-10-31T08:30:34.972Z,8.73
2022-10-31T08:33:24.867Z,8.80
2022-10-31T08:35:59.066Z,8.89
2022-10-31T08:38:45.933Z,9.01
2022-10-31T08:41:25.907Z,9.15
2022-10-31T08:44:12.936Z,9.29
2022-10-31T08:46:52.860Z,9.45
2022-10-31T08:49:49.906Z,9.64
2022-10-31T08:53:02.942Z,9.87
2022-10-31T08:55:30.002Z,10.08
2022-10-31T08:58:19.906Z,10.27
2022-10-31T09:00:55.093Z,10.40
2022-10-31T09:03:41.907Z,10.50
2022-10-31T09:06:15.015Z,10.61
2022-10-31T09:09:01.903Z,10.69
2022-10-31T09:11:34.967Z,10.77
2022-10-31T09:14:21.902Z,10.86
2022-10-31T09:16:57.910Z,10.95
2022-10-31T09:19:44.936Z,11.07
2022-10-31T09:22:17.938Z,11.16
2022-10-31T09:25:04.944Z,11.25
2022-10-31T09:27:44.938Z,11.31
2022-10-31T09:30:39.915Z,11.39
2022-10-31T09:33:33.908Z,11.46
2022-10-31T09:36:20.941Z,11.51
2022-10-31T09:38:54.043Z,11.55
2022-10-31T09:42:04.935Z,11.60
2022-10-31T09:45:18.922Z,11.61
2022-10-31T09:48:24.940Z,11.64
2022-10-31T09:51:19.906Z,11.68
2022-10-31T09:54:01.748Z,11.71
2022-10-31T09:56:49.912Z,11.78
2022-10-31T09:59:45.928Z,11.83
2022-10-31T10:02:50.984Z,11.89
2022-10-31T10:05:51.910Z,11.93
2022-10-31T10:08:47.917Z,11.98
2022-10-31T10:11:42.937Z,11.97
2022-10-31T10:14:25.010Z,11.99
2022-10-31T10:17:20.935Z,12.01
2022-10-31T10:20:30.941Z,12.05
2022-10-31T10:23:49.925Z,12.06
2022-10-31T10:26:51.911Z,12.10
2022-10-31T10:29:42.044Z,12.14
2022-10-31T10:32:33.918Z,12.16
2022-10-31T10:35:28.983Z,12.17
2022-10-31T10:38:45.743Z,12.19
2022-10-31T10:41:34.445Z,12.22
2022-10-31T10:44:28.986Z,12.24
2022-10-31T10:47:40.971Z,12.22
2022-10-31T10:50:46.984Z,12.24
2022-10-31T10:53:42.927Z,12.24
2022-10-31T10:56:44.949Z,12.23
2022-10-31T10:59:24.392Z,12.24
2022-10-31T11:02:22.150Z,12.28
2022-10-31T11:04:59.013Z,12.31
2022-10-31T11:07:48.974Z,12.33
2022-10-31T11:10:24.046Z,12.39
2022-10-31T11:13:25.130Z,12.43
2022-10-31T11:16:01.109Z,12.44
2022-10-31T11:18:52.989Z,12.46
2022-10-31T11:21:42.002Z,12.48
2022-10-31T11:24:35.021Z,12.48
2022-10-31T11:27:29.087Z,12.50
2022-10-31T11:30:20.980Z,12.51
2022-10-31T11:33:04.982Z,12.51
2022-10-31T11:35:59.369Z,12.53
2022-10-31T11:38:51.024Z,12.57
2022-10-31T11:41:36.089Z,12.62
2022-10-31T11:44:26.969Z,12.65
2022-10-31T11:47:03.112Z,12.70
2022-10-31T11:49:52.993Z,12.74
2022-10-31T11:52:32.126Z,12.78
2022-10-31T11:55:38.993Z,12.78
2022-10-31T11:58:34.001Z,12.80
2022-10-31T12:01:45.309Z,12.80
2022-10-31T12:04:49.041Z,12.82
2022-10-31T12:07:24.096Z,12.84
2022-10-31T12:10:18.005Z,12.85
2022-10-31T12:13:11.028Z,12.86
2022-10-31T12:16:16.979Z,12.88
2022-10-31T12:19:22.006Z,12.89
2022-10-31T12:22:14.135Z,12.89
2022-10-31T12:25:25.283Z,12.91
2022-10-31T12:28:22.008Z,12.94
2022-10-31T12:31:34.009Z,12.93
2022-10-31T12:34:36.009Z,12.95
2022-10-31T12:37:31.254Z,12.95
2022-10-31T12:40:46.008Z,12.95
2022-10-31T12:43:52.003Z,12.94
2022-10-31T12:47:11.053Z,12.93
2022-10-31T12:50:39.031Z,12.95
2022-10-31T12:53:56.447Z,12.94
2022-10-31T12:56:45.024Z,12.92
2022-10-31T12:59:47.764Z,12.93
2022-10-31T13:02:38.118Z,12.94
2022-10-31T13:05:25.039Z,12.90
2022-10-31T13:08:22.100Z,12.93
2022-10-31T13:11:31.057Z,12.92
2022-10-31T13:14:04.091Z,12.90
2022-10-31T13:16:54.035Z,12.89
2022-10-31T13:19:45.035Z,12.86
2022-10-31T13:22:36.996Z,12.83
2022-10-31T13:25:10.088Z,12.81
2022-10-31T13:28:05.026Z,12.78
2022-10-31T13:30:53.024Z,12.73
2022-10-31T13:34:10.060Z,12.67
2022-10-31T13:37:06.034Z,12.65
2022-10-31T13:40:05.142Z,12.61
2022-10-31T13:42:51.999Z,12.57
2022-10-31T13:45:28.190Z,12.53
2022-10-31T13:48:25.011Z,12.48
2022-10-31T13:51:08.511Z,12.44
2022-10-31T13:53:58.019Z,12.40
2022-10-31T13:56:41.099Z,12.35
2022-10-31T13:59:33.019Z,12.27
2022-10-31T14:02:20.203Z,12.21
2022-10-31T14:05:14.209Z,12.14
2022-10-31T14:07:51.157Z,12.11
2022-10-31T14:10:46.183Z,12.03
2022-10-31T14:13:38.251Z,11.98
2022-10-31T14:16:38.040Z,11.91
2022-10-31T14:19:29.043Z,11.85
2022-10-31T14:22:38.651Z,11.77
2022-10-31T14:25:40.031Z,11.66
2022-10-31T14:28:34.025Z,11.60
2022-10-31T14:31:51.039Z,11.54
2022-10-31T14:34:49.021Z,11.46
2022-10-31T14:37:53.044Z,11.40
2022-10-31T14:41:08.034Z,11.33
2022-10-31T14:44:11.048Z,11.23
2022-10-31T14:47:16.241Z,11.17
2022-10-31T14:50:12.055Z,11.10
2022-10-31T14:53:11.044Z,11.04
2022-10-31T14:56:05.767Z,10.98
2022-10-31T14:58:46.775Z,10.91
2022-10-31T15:01:44.190Z,10.83
2022-10-31T15:04:41.055Z,10.77
2022-10-31T15:07:38.052Z,10.70
2022-10-31T15:10:33.088Z,10.62
2022-10-31T15:13:35.191Z,10.54
2022-10-31T15:16:26.115Z,10.46
2022-10-31T15:19:02.137Z,10.39
2022-10-31T15:21:55.082Z,10.36
2022-10-31T15:24:39.066Z,10.35
2022-10-31T15:27:26.083Z,10.32
2022-10-31T15:30:11.075Z,10.31
2022-10-31T15:33:06.115Z,10.30
2022-10-31T15:36:09.088Z,10.31
2022-10-31T15:38:57.061Z,10.32
2022-10-31T15:41:54.551Z,10.33
2022-10-31T15:44:47.072Z,10.32
2022-10-31T15:47:26.159Z,10.29
2022-10-31T15:50:28.081Z,10.26
2022-10-31T15:53:01.484Z,10.27
2022-10-31T15:55:56.087Z,10.28
2022-10-31T15:58:38.083Z,10.28
2022-10-31T16:01:41.205Z,10.28
2022-10-31T16:04:31.078Z,10.27
2022-10-31T16:07:23.656Z,10.27
2022-10-31T16:12:53.200Z,10.21
2022-10-31T16:15:41.086Z,10.20
2022-10-31T16:18:19.147Z,10.19
2022-10-31T16:21:06.126Z,10.15
2022-10-31T16:23:39.146Z,10.17
2022-10-31T16:26:27.090Z,10.17
2022-10-31T16:29:05.398Z,10.17
2022-10-31T16:31:53.081Z,10.15
2022-10-31T16:34:30.176Z,10.14
2022-10-31T16:37:17.082Z,10.11
2022-10-31T16:39:50.186Z,10.07
2022-10-31T16:42:37.167Z,10.06
2022-10-31T16:45:13.200Z,10.06
2022-10-31T16:48:00.326Z,10.06
2022-10-31T16:50:35.231Z,10.04
2022-10-31T16:53:23.097Z,10.03
2022-10-31T16:56:12.109Z,10.02
2022-10-31T16:59:06.127Z,10.01
2022-10-31T17:02:03.267Z,9.99
2022-10-31T17:04:57.187Z,9.95
2022-10-31T17:07:44.115Z,9.93
2022-10-31T17:10:20.281Z,9.91
2022-10-31T17:13:10.113Z,9.90
2022-10-31T17:15:51.230Z,9.92
2022-10-31T17:18:38.139Z,9.90
2022-10-31T17:21:19.125Z,9.90
2022-10-31T17:24:13.110Z,9.87
2022-10-31T17:27:00.109Z,9.87
2022-10-31T17:29:33.185Z,9.88
2022-10-31T17:32:20.134Z,9.87
2022-10-31T17:35:00.124Z,9.87
2022-10-31T17:37:49.142Z,9.85
2022-10-31T17:40:25.209Z,9.84
2022-10-31T17:43:14.044Z,9.81
2022-10-31T17:45:55.129Z,9.80
2022-10-31T17:48:50.112Z,9.79
2022-10-31T17:51:37.134Z,9.76
2022-10-31T17:54:17.135Z,9.73
2022-10-31T17:57:11.153Z,9.72
2022-10-31T17:59:58.132Z,9.68
2022-10-31T18:02:31.290Z,9.66
2022-10-31T18:05:18.139Z,9.65
2022-10-31T18:08:02.472Z,9.65
2022-10-31T18:10:50.154Z,9.63
2022-10-31T18:13:23.253Z,9.64
2022-10-31T18:16:17.138Z,9.61
2022-10-31T18:18:57.147Z,9.60
2022-10-31T18:21:44.129Z,9.56
2022-10-31T18:24:17.239Z,9.49
2022-10-31T18:27:04.147Z,9.45
2022-10-31T18:29:44.146Z,9.43
2022-10-31T18:32:31.148Z,9.42
2022-10-31T18:35:04.219Z,9.40
2022-10-31T18:37:51.163Z,9.32
2022-10-31T18:40:31.148Z,9.32
2022-10-31T18:43:25.174Z,9.30
2022-10-31T18:46:15.150Z,9.27
2022-10-31T18:48:57.186Z,9.25
2022-10-31T18:51:51.162Z,9.25
2022-10-31T18:54:45.158Z,9.24
2022-10-31T18:57:34.172Z,9.24
2022-10-31T19:00:07.218Z,9.23
2022-10-31T19:03:01.453Z,9.20
2022-10-31T19:05:55.159Z,9.14
2022-10-31T19:08:50.179Z,9.10
2022-10-31T19:11:41.164Z,9.09
2022-10-31T19:14:14.957Z,9.08
2022-10-31T19:17:02.344Z,9.08
2022-10-31T19:19:43.199Z,9.06
2022-10-31T19:22:37.184Z,9.04
2022-10-31T19:25:31.197Z,9.02
2022-10-31T19:28:18.202Z,9.02
2022-10-31T19:30:59.330Z,8.99
2022-10-31T19:33:46.173Z,8.97
2022-10-31T19:36:29.190Z,8.95
2022-10-31T19:39:24.182Z,8.93
2022-10-31T19:42:18.188Z,8.92
2022-10-31T19:45:05.169Z,8.92
2022-10-31T19:47:45.201Z,8.90
2022-10-31T19:50:39.189Z,8.89
2022-10-31T19:53:27.165Z,8.89
2022-10-31T19:56:00.270Z,8.88
2022-10-31T19:58:47.183Z,8.87
2022-10-31T20:01:33.285Z,8.86
2022-10-31T20:04:27.205Z,8.87
2022-10-31T20:07:22.190Z,8.81
2022-10-31T20:10:16.187Z,8.80
2022-10-31T20:13:03.541Z,8.76
2022-10-31T20:15:37.395Z,8.77
2022-10-31T20:21:12.275Z,8.77
2022-10-31T20:24:07.196Z,8.81
2022-10-31T20:26:48.222Z,8.80
2022-10-31T20:29:35.199Z,8.77
2022-10-31T20:32:15.307Z,8.76
2022-10-31T20:35:09.235Z,8.76
2022-10-31T20:37:56.201Z,8.74
2022-10-31T20:40:29.285Z,8.73
2022-10-31T20:43:18.202Z,8.72
2022-10-31T20:45:51.268Z,8.69
2022-10-31T20:48:38.216Z,8.67
2022-10-31T20:54:07.225Z,8.64
2022-10-31T20:56:47.207Z,8.62
2022-10-31T20:59:41.215Z,8.62
2022-10-31T21:02:35.277Z,8.58
2022-10-31T21:05:29.215Z,8.56
2022-10-31T21:08:23.219Z,8.56
2022-10-31T21:11:23.211Z,8.58
2022-10-31T21:14:17.217Z,8.59
2022-10-31T21:17:11.216Z,8.60
2022-10-31T21:20:05.302Z,8.59
2022-10-31T21:22:45.232Z,8.57
2022-10-31T21:25:25.257Z,8.57
2022-10-31T21:27:58.461Z,8.55
2022-10-31T21:30:50.218Z,8.53
2022-10-31T21:33:30.240Z,8.53
2022-10-31T21:36:17.240Z,8.50
2022-10-31T21:38:58.244Z,8.50
2022-10-31T21:41:45.243Z,8.49
2022-10-31T21:44:18.296Z,8.48
2022-10-31T21:47:05.235Z,8.45
2022-10-31T21:49:45.216Z,8.42
2022-10-31T21:52:39.243Z,8.41
2022-10-31T21:55:26.232Z,8.37
2022-10-31T21:57:59.499Z,8.35
2022-10-31T22:00:46.260Z,8.32
2022-10-31T22:03:19.300Z,8.30
2022-10-31T22:06:09.241Z,8.33
2022-10-31T22:08:42.350Z,8.32
2022-10-31T22:11:29.261Z,8.32
2022-10-31T22:14:03.396Z,8.32
2022-10-31T22:16:50.239Z,8.32
2022-10-31T22:19:30.262Z,8.31
2022-10-31T22:22:25.248Z,8.32
2022-10-31T22:25:19.249Z,8.34
2022-10-31T22:28:08.258Z,8.38
2022-10-31T22:30:51.269Z,8.42
2022-10-31T22:33:38.262Z,8.42
2022-10-31T22:36:23.242Z,8.41
2022-10-31T22:39:18.250Z,8.43
2022-10-31T22:42:05.257Z,8.43
2022-10-31T22:44:45.268Z,8.45
2022-10-31T22:47:32.302Z,8.46
2022-10-31T22:50:12.275Z,8.48
2022-10-31T22:52:59.270Z,8.49
2022-10-31T22:55:32.326Z,8.51
2022-10-31T22:58:19.271Z,8.49
2022-10-31T23:00:52.389Z,8.50
2022-10-31T23:03:46.270Z,8.49
2022-10-31T23:06:36.254Z,8.51
2022-10-31T23:09:12.365Z,8.52
2022-10-31T23:11:59.277Z,8.53
2022-10-31T23:14:39.270Z,8.54
2022-10-31T23:17:33.279Z,8.52
2022-10-31T23:20:27.299Z,8.51
2022-10-31T23:23:21.294Z,8.47
2022-10-31T23:26:33.272Z,8.46
2022-10-31T23:29:20.292Z,8.46
2022-10-31T23:31:56.189Z,8.45
2022-10-31T23:34:43.265Z,8.46
2022-10-31T23:37:16.707Z,8.46
2022-10-31T23:40:04.262Z,8.47
2022-10-31T23:42:44.300Z,8.47
2022-10-31T23:45:38.283Z,8.49
2022-10-31T23:48:25.279Z,8.50
2022-10-31T23:51:05.298Z,8.51
2022-10-31T23:53:59.279Z,8.50
2022-10-31T23:56:46.304Z,8.51
2022-10-31T23:59:19.381Z,8.51
